sensor_id;sensor_type;location;lat;lon;timestamp;temperature;humidity
39401;DHT22;54391;50.000;7.360;2022-10-10T00:01:29;8.30;47.90
39401;DHT22;54391;50.000;7.360;2022-10-10T00:03:57;8.30;48.50
39401;DHT22;54391;50.000;7.360;2022-10-10T00:06:27;8.30;49.10
39401;DHT22;54391;50.000;7.360;2022-10-10T00:08:54;8.20;49.20
39401;DHT22;54391;50.000;7.360;2022-10-10T00:11:23;8.20;50.20
39401;DHT22;54391;50.000;7.360;2022-10-10T00:13:51;8.20;50.30
39401;DHT22;54391;50.000;7.360;2022-10-10T00:16:18;8.20;50.60
39401;DHT22;54391;50.000;7.360;2022-10-10T00:18:46;8.10;51.20
39401;DHT22;54391;50.000;7.360;2022-10-10T00:21:14;8.10;51.70
39401;DHT22;54391;50.000;7.360;2022-10-10T00:23:42;8.10;51.90
39401;DHT22;54391;50.000;7.360;2022-10-10T00:26:10;8.10;52.60
39401;DHT22;54391;50.000;7.360;2022-10-10T00:28:37;8.10;53.10
39401;DHT22;54391;50.000;7.360;2022-10-10T00:31:05;8.10;52.20
39401;DHT22;54391;50.000;7.360;2022-10-10T00:33:33;8.10;51.90
39401;DHT22;54391;50.000;7.360;2022-10-10T00:36:00;8.10;53.00
39401;DHT22;54391;50.000;7.360;2022-10-10T00:38:27;8.10;53.30
39401;DHT22;54391;50.000;7.360;2022-10-10T00:40:56;8.10;52.30
39401;DHT22;54391;50.000;7.360;2022-10-10T00:43:24;8.00;53.50
39401;DHT22;54391;50.000;7.360;2022-10-10T00:45:52;8.10;54.20
39401;DHT22;54391;50.000;7.360;2022-10-10T00:48:21;8.00;53.80
39401;DHT22;54391;50.000;7.360;2022-10-10T00:50:53;8.10;53.80
39401;DHT22;54391;50.000;7.360;2022-10-10T00:53:24;8.10;53.70
39401;DHT22;54391;50.000;7.360;2022-10-10T00:55:53;8.00;54.40
39401;DHT22;54391;50.000;7.360;2022-10-10T00:58:23;8.00;54.50
39401;DHT22;54391;50.000;7.360;2022-10-10T01:00:51;8.00;54.70
39401;DHT22;54391;50.000;7.360;2022-10-10T01:03:19;8.00;55.60
39401;DHT22;54391;50.000;7.360;2022-10-10T01:05:47;7.90;55.40
39401;DHT22;54391;50.000;7.360;2022-10-10T01:08:16;7.80;57.10
39401;DHT22;54391;50.000;7.360;2022-10-10T01:10:55;7.90;56.20
39401;DHT22;54391;50.000;7.360;2022-10-10T01:13:31;7.90;57.00
39401;DHT22;54391;50.000;7.360;2022-10-10T01:16:02;7.90;57.30
39401;DHT22;54391;50.000;7.360;2022-10-10T01:18:39;7.80;57.60
39401;DHT22;54391;50.000;7.360;2022-10-10T01:21:18;7.80;57.40
39401;DHT22;54391;50.000;7.360;2022-10-10T01:24:02;7.80;58.40
39401;DHT22;54391;50.000;7.360;2022-10-10T01:29:42;7.70;59.00
39401;DHT22;54391;50.000;7.360;2022-10-10T01:32:14;7.70;59.70
39401;DHT22;54391;50.000;7.360;2022-10-10T01:34:49;7.70;59.40
39401;DHT22;54391;50.000;7.360;2022-10-10T01:37:21;7.70;60.20
39401;DHT22;54391;50.000;7.360;2022-10-10T01:39:55;7.70;59.40
39401;DHT22;54391;50.000;7.360;2022-10-10T01:42:27;7.70;60.40
39401;DHT22;54391;50.000;7.360;2022-10-10T01:44:57;7.70;60.20
39401;DHT22;54391;50.000;7.360;2022-10-10T01:47:24;7.60;60.70
39401;DHT22;54391;50.000;7.360;2022-10-10T01:49:54;7.70;60.60
39401;DHT22;54391;50.000;7.360;2022-10-10T01:52:31;7.60;61.30
39401;DHT22;54391;50.000;7.360;2022-10-10T01:55:11;7.60;61.30
39401;DHT22;54391;50.000;7.360;2022-10-10T01:57:49;7.60;61.30
39401;DHT22;54391;50.000;7.360;2022-10-10T02:02:52;7.60;60.90
39401;DHT22;54391;50.000;7.360;2022-10-10T02:05:26;7.60;60.80
39401;DHT22;54391;50.000;7.360;2022-10-10T02:07:56;7.60;61.80
39401;DHT22;54391;50.000;7.360;2022-10-10T02:10:28;7.50;61.70
39401;DHT22;54391;50.000;7.360;2022-10-10T02:12:59;7.50;62.60
39401;DHT22;54391;50.000;7.360;2022-10-10T02:15:32;7.50;63.00
39401;DHT22;54391;50.000;7.360;2022-10-10T02:18:01;7.50;64.80
39401;DHT22;54391;50.000;7.360;2022-10-10T02:20:31;7.40;64.10
39401;DHT22;54391;50.000;7.360;2022-10-10T02:22:58;7.40;64.80
39401;DHT22;54391;50.000;7.360;2022-10-10T02:25:30;7.60;66.30
39401;DHT22;54391;50.000;7.360;2022-10-10T02:28:05;7.60;66.50
39401;DHT22;54391;50.000;7.360;2022-10-10T02:30:39;7.70;64.90
39401;DHT22;54391;50.000;7.360;2022-10-10T02:33:07;7.70;64.30
39401;DHT22;54391;50.000;7.360;2022-10-10T02:35:38;7.70;64.90
39401;DHT22;54391;50.000;7.360;2022-10-10T02:38:08;7.70;64.80
39401;DHT22;54391;50.000;7.360;2022-10-10T02:40:38;7.60;64.50
39401;DHT22;54391;50.000;7.360;2022-10-10T02:43:07;7.60;64.50
39401;DHT22;54391;50.000;7.360;2022-10-10T02:45:38;7.60;65.50
39401;DHT22;54391;50.000;7.360;2022-10-10T02:50:34;7.60;66.00
39401;DHT22;54391;50.000;7.360;2022-10-10T02:53:01;7.60;66.00
39401;DHT22;54391;50.000;7.360;2022-10-10T02:55:29;7.70;67.30
39401;DHT22;54391;50.000;7.360;2022-10-10T02:57:56;7.60;66.70
39401;DHT22;54391;50.000;7.360;2022-10-10T03:00:23;7.70;65.90
39401;DHT22;54391;50.000;7.360;2022-10-10T03:02:52;7.60;65.40
39401;DHT22;54391;50.000;7.360;2022-10-10T03:05:20;7.60;66.40
39401;DHT22;54391;50.000;7.360;2022-10-10T03:07:47;7.60;66.50
39401;DHT22;54391;50.000;7.360;2022-10-10T03:10:14;7.50;67.20
39401;DHT22;54391;50.000;7.360;2022-10-10T03:12:42;7.50;67.10
39401;DHT22;54391;50.000;7.360;2022-10-10T03:15:09;7.50;68.10
39401;DHT22;54391;50.000;7.360;2022-10-10T03:17:37;7.50;69.00
39401;DHT22;54391;50.000;7.360;2022-10-10T03:20:07;7.50;68.80
39401;DHT22;54391;50.000;7.360;2022-10-10T03:22:34;7.50;69.50
39401;DHT22;54391;50.000;7.360;2022-10-10T03:25:02;7.50;69.50
39401;DHT22;54391;50.000;7.360;2022-10-10T03:27:30;7.50;69.90
39401;DHT22;54391;50.000;7.360;2022-10-10T03:29:57;7.50;69.30
39401;DHT22;54391;50.000;7.360;2022-10-10T03:32:24;7.50;70.90
39401;DHT22;54391;50.000;7.360;2022-10-10T03:34:53;7.50;70.50
39401;DHT22;54391;50.000;7.360;2022-10-10T03:39:49;7.60;68.50
39401;DHT22;54391;50.000;7.360;2022-10-10T03:42:16;7.60;69.80
39401;DHT22;54391;50.000;7.360;2022-10-10T03:44:43;7.60;69.70
39401;DHT22;54391;50.000;7.360;2022-10-10T03:47:10;7.60;69.70
39401;DHT22;54391;50.000;7.360;2022-10-10T03:49:38;7.50;69.50
39401;DHT22;54391;50.000;7.360;2022-10-10T03:52:06;7.50;70.70
39401;DHT22;54391;50.000;7.360;2022-10-10T03:54:34;7.50;70.70
39401;DHT22;54391;50.000;7.360;2022-10-10T03:57:02;7.50;70.50
39401;DHT22;54391;50.000;7.360;2022-10-10T03:59:29;7.50;69.30
39401;DHT22;54391;50.000;7.360;2022-10-10T04:01:56;7.50;70.20
39401;DHT22;54391;50.000;7.360;2022-10-10T04:04:24;7.50;69.80
39401;DHT22;54391;50.000;7.360;2022-10-10T04:06:51;7.50;69.80
39401;DHT22;54391;50.000;7.360;2022-10-10T04:09:18;7.40;69.30
39401;DHT22;54391;50.000;7.360;2022-10-10T04:11:47;7.40;70.70
39401;DHT22;54391;50.000;7.360;2022-10-10T04:14:14;7.40;70.80
39401;DHT22;54391;50.000;7.360;2022-10-10T04:16:41;7.40;69.60
39401;DHT22;54391;50.000;7.360;2022-10-10T04:19:09;7.40;71.00
39401;DHT22;54391;50.000;7.360;2022-10-10T04:21:36;7.30;72.10
39401;DHT22;54391;50.000;7.360;2022-10-10T04:24:03;7.30;72.70
39401;DHT22;54391;50.000;7.360;2022-10-10T04:26:31;7.30;73.70
39401;DHT22;54391;50.000;7.360;2022-10-10T04:28:59;7.30;73.20
39401;DHT22;54391;50.000;7.360;2022-10-10T04:31:27;7.30;73.80
39401;DHT22;54391;50.000;7.360;2022-10-10T04:33:55;7.30;74.50
39401;DHT22;54391;50.000;7.360;2022-10-10T04:36:22;7.20;73.00
39401;DHT22;54391;50.000;7.360;2022-10-10T04:38:49;7.20;73.60
39401;DHT22;54391;50.000;7.360;2022-10-10T04:41:17;7.20;74.40
39401;DHT22;54391;50.000;7.360;2022-10-10T04:43:44;7.20;74.00
39401;DHT22;54391;50.000;7.360;2022-10-10T04:46:33;7.20;73.90
39401;DHT22;54391;50.000;7.360;2022-10-10T04:51:29;7.10;72.90
39401;DHT22;54391;50.000;7.360;2022-10-10T04:56:24;7.10;73.80
39401;DHT22;54391;50.000;7.360;2022-10-10T05:01:19;7.00;74.40
39401;DHT22;54391;50.000;7.360;2022-10-10T05:03:48;7.10;76.10
39401;DHT22;54391;50.000;7.360;2022-10-10T05:06:15;7.10;74.50
39401;DHT22;54391;50.000;7.360;2022-10-10T05:08:42;7.10;74.90
39401;DHT22;54391;50.000;7.360;2022-10-10T05:11:10;7.00;73.60
39401;DHT22;54391;50.000;7.360;2022-10-10T05:13:37;7.00;73.50
39401;DHT22;54391;50.000;7.360;2022-10-10T05:16:05;7.00;73.70
39401;DHT22;54391;50.000;7.360;2022-10-10T05:21:03;7.00;71.30
39401;DHT22;54391;50.000;7.360;2022-10-10T05:23:31;7.10;71.90
39401;DHT22;54391;50.000;7.360;2022-10-10T05:25:59;7.00;71.80
39401;DHT22;54391;50.000;7.360;2022-10-10T05:28:27;7.00;71.10
39401;DHT22;54391;50.000;7.360;2022-10-10T05:33:23;7.10;70.80
39401;DHT22;54391;50.000;7.360;2022-10-10T05:35:50;7.20;71.80
39401;DHT22;54391;50.000;7.360;2022-10-10T05:43:14;7.10;67.00
39401;DHT22;54391;50.000;7.360;2022-10-10T05:45:42;6.90;67.00
39401;DHT22;54391;50.000;7.360;2022-10-10T05:48:09;7.00;68.60
39401;DHT22;54391;50.000;7.360;2022-10-10T05:50:39;6.90;70.50
39401;DHT22;54391;50.000;7.360;2022-10-10T05:53:07;6.80;72.20
39401;DHT22;54391;50.000;7.360;2022-10-10T05:55:35;7.00;74.40
39401;DHT22;54391;50.000;7.360;2022-10-10T05:58:03;7.10;74.70
39401;DHT22;54391;50.000;7.360;2022-10-10T06:00:30;7.10;70.50
39401;DHT22;54391;50.000;7.360;2022-10-10T06:02:58;7.10;70.70
39401;DHT22;54391;50.000;7.360;2022-10-10T06:05:25;7.20;70.40
39401;DHT22;54391;50.000;7.360;2022-10-10T06:07:52;7.10;68.90
39401;DHT22;54391;50.000;7.360;2022-10-10T06:10:20;7.00;68.90
39401;DHT22;54391;50.000;7.360;2022-10-10T06:12:48;6.90;70.10
39401;DHT22;54391;50.000;7.360;2022-10-10T06:15:16;7.00;71.00
39401;DHT22;54391;50.000;7.360;2022-10-10T06:17:43;7.00;70.20
39401;DHT22;54391;50.000;7.360;2022-10-10T06:20:11;7.10;68.60
39401;DHT22;54391;50.000;7.360;2022-10-10T06:25:06;7.20;67.60
39401;DHT22;54391;50.000;7.360;2022-10-10T06:27:34;7.40;67.20
39401;DHT22;54391;50.000;7.360;2022-10-10T06:30:03;7.30;67.10
39401;DHT22;54391;50.000;7.360;2022-10-10T06:32:30;7.30;67.80
39401;DHT22;54391;50.000;7.360;2022-10-10T06:34:58;7.30;68.30
39401;DHT22;54391;50.000;7.360;2022-10-10T06:37:25;7.40;67.70
39401;DHT22;54391;50.000;7.360;2022-10-10T06:39:52;7.50;65.80
39401;DHT22;54391;50.000;7.360;2022-10-10T06:42:20;7.50;65.60
39401;DHT22;54391;50.000;7.360;2022-10-10T06:44:52;7.60;66.00
39401;DHT22;54391;50.000;7.360;2022-10-10T06:47:21;7.60;66.40
39401;DHT22;54391;50.000;7.360;2022-10-10T06:49:48;7.70;66.30
39401;DHT22;54391;50.000;7.360;2022-10-10T06:52:16;7.70;65.70
39401;DHT22;54391;50.000;7.360;2022-10-10T06:54:43;7.90;65.40
39401;DHT22;54391;50.000;7.360;2022-10-10T06:57:10;8.00;66.30
39401;DHT22;54391;50.000;7.360;2022-10-10T06:59:38;8.20;64.10
39401;DHT22;54391;50.000;7.360;2022-10-10T07:02:05;8.30;64.50
39401;DHT22;54391;50.000;7.360;2022-10-10T07:04:34;8.50;64.30
39401;DHT22;54391;50.000;7.360;2022-10-10T07:07:01;8.60;62.00
39401;DHT22;54391;50.000;7.360;2022-10-10T07:09:28;9.50;56.30
39401;DHT22;54391;50.000;7.360;2022-10-10T07:11:56;9.80;55.10
39401;DHT22;54391;50.000;7.360;2022-10-10T07:14:23;10.70;44.10
39401;DHT22;54391;50.000;7.360;2022-10-10T07:16:51;12.00;36.30
39401;DHT22;54391;50.000;7.360;2022-10-10T07:19:19;13.60;20.80
39401;DHT22;54391;50.000;7.360;2022-10-10T07:21:50;14.20;16.20
39401;DHT22;54391;50.000;7.360;2022-10-10T07:26:45;14.60;12.80
39401;DHT22;54391;50.000;7.360;2022-10-10T07:29:13;15.20;9.30
39401;DHT22;54391;50.000;7.360;2022-10-10T07:31:40;15.10;10.20
39401;DHT22;54391;50.000;7.360;2022-10-10T07:34:07;15.60;9.30
39401;DHT22;54391;50.000;7.360;2022-10-10T07:36:34;15.30;10.30
39401;DHT22;54391;50.000;7.360;2022-10-10T07:39:04;15.10;9.90
39401;DHT22;54391;50.000;7.360;2022-10-10T07:41:32;14.80;11.50
39401;DHT22;54391;50.000;7.360;2022-10-10T07:43:59;14.60;12.80
39401;DHT22;54391;50.000;7.360;2022-10-10T07:46:26;14.60;13.80
39401;DHT22;54391;50.000;7.360;2022-10-10T07:48:55;16.30;7.00
39401;DHT22;54391;50.000;7.360;2022-10-10T07:51:22;16.40;7.50
39401;DHT22;54391;50.000;7.360;2022-10-10T07:53:50;16.40;6.20
39401;DHT22;54391;50.000;7.360;2022-10-10T07:56:19;16.90;4.70
39401;DHT22;54391;50.000;7.360;2022-10-10T07:58:46;17.30;3.60
39401;DHT22;54391;50.000;7.360;2022-10-10T08:01:14;17.20;4.10
39401;DHT22;54391;50.000;7.360;2022-10-10T08:03:41;17.10;4.10
39401;DHT22;54391;50.000;7.360;2022-10-10T08:06:10;16.80;6.00
39401;DHT22;54391;50.000;7.360;2022-10-10T08:08:38;17.70;2.40
39401;DHT22;54391;50.000;7.360;2022-10-10T08:11:07;17.80;3.10
39401;DHT22;54391;50.000;7.360;2022-10-10T08:13:37;18.60;1.00
39401;DHT22;54391;50.000;7.360;2022-10-10T08:16:05;18.90;1.00
39401;DHT22;54391;50.000;7.360;2022-10-10T08:18:32;19.30;1.00
39401;DHT22;54391;50.000;7.360;2022-10-10T08:21:02;19.20;1.00
39401;DHT22;54391;50.000;7.360;2022-10-10T08:23:29;19.50;1.00
39401;DHT22;54391;50.000;7.360;2022-10-10T08:25:57;19.00;1.00
39401;DHT22;54391;50.000;7.360;2022-10-10T08:28:25;18.90;1.00
39401;DHT22;54391;50.000;7.360;2022-10-10T08:33:22;17.90;1.00
39401;DHT22;54391;50.000;7.360;2022-10-10T08:35:51;17.70;2.60
39401;DHT22;54391;50.000;7.360;2022-10-10T08:38:19;18.60;1.50
39401;DHT22;54391;50.000;7.360;2022-10-10T08:40:48;18.20;2.40
39401;DHT22;54391;50.000;7.360;2022-10-10T08:43:20;19.10;1.00
39401;DHT22;54391;50.000;7.360;2022-10-10T08:45:50;19.30;1.00
39401;DHT22;54391;50.000;7.360;2022-10-10T08:48:24;19.10;1.00
39401;DHT22;54391;50.000;7.360;2022-10-10T08:50:57;18.30;2.70
39401;DHT22;54391;50.000;7.360;2022-10-10T08:53:32;18.20;2.70
39401;DHT22;54391;50.000;7.360;2022-10-10T08:56:04;19.00;1.50
39401;DHT22;54391;50.000;7.360;2022-10-10T08:58:35;19.70;1.00
39401;DHT22;54391;50.000;7.360;2022-10-10T09:01:07;19.60;1.00
39401;DHT22;54391;50.000;7.360;2022-10-10T09:03:42;19.30;1.00
39401;DHT22;54391;50.000;7.360;2022-10-10T09:06:21;19.50;1.00
39401;DHT22;54391;50.000;7.360;2022-10-10T09:08:56;19.70;1.00
39401;DHT22;54391;50.000;7.360;2022-10-10T09:11:39;19.60;1.00
39401;DHT22;54391;50.000;7.360;2022-10-10T09:14:18;20.00;1.00
39401;DHT22;54391;50.000;7.360;2022-10-10T09:16:54;20.20;1.00
39401;DHT22;54391;50.000;7.360;2022-10-10T09:19:38;20.20;1.00
39401;DHT22;54391;50.000;7.360;2022-10-10T09:22:11;20.20;1.00
39401;DHT22;54391;50.000;7.360;2022-10-10T09:24:43;20.00;1.00
39401;DHT22;54391;50.000;7.360;2022-10-10T09:27:15;20.00;1.00
39401;DHT22;54391;50.000;7.360;2022-10-10T09:29:46;21.10;1.00
39401;DHT22;54391;50.000;7.360;2022-10-10T09:32:19;21.40;1.00
39401;DHT22;54391;50.000;7.360;2022-10-10T09:34:52;21.50;1.00
39401;DHT22;54391;50.000;7.360;2022-10-10T09:37:23;21.20;1.00
39401;DHT22;54391;50.000;7.360;2022-10-10T09:39:55;21.60;1.00
39401;DHT22;54391;50.000;7.360;2022-10-10T09:42:30;21.70;1.00
39401;DHT22;54391;50.000;7.360;2022-10-10T09:44:59;21.50;1.00
39401;DHT22;54391;50.000;7.360;2022-10-10T09:47:28;21.50;1.00
39401;DHT22;54391;50.000;7.360;2022-10-10T09:49:57;21.30;1.00
39401;DHT22;54391;50.000;7.360;2022-10-10T09:52:28;21.30;1.00
39401;DHT22;54391;50.000;7.360;2022-10-10T09:54:58;21.20;1.00
39401;DHT22;54391;50.000;7.360;2022-10-10T09:57:34;21.20;1.00
39401;DHT22;54391;50.000;7.360;2022-10-10T10:00:25;20.60;1.00
39401;DHT22;54391;50.000;7.360;2022-10-10T10:03:09;20.70;1.00
39401;DHT22;54391;50.000;7.360;2022-10-10T10:05:39;21.20;1.00
39401;DHT22;54391;50.000;7.360;2022-10-10T10:08:19;20.90;1.00
39401;DHT22;54391;50.000;7.360;2022-10-10T10:13:21;20.70;1.00
39401;DHT22;54391;50.000;7.360;2022-10-10T10:15:57;20.80;1.00
39401;DHT22;54391;50.000;7.360;2022-10-10T10:18:26;21.00;1.00
39401;DHT22;54391;50.000;7.360;2022-10-10T10:21:10;21.20;1.00
39401;DHT22;54391;50.000;7.360;2022-10-10T10:23:41;21.10;1.00
39401;DHT22;54391;50.000;7.360;2022-10-10T10:26:17;21.00;1.00
39401;DHT22;54391;50.000;7.360;2022-10-10T10:28:46;21.00;1.00
39401;DHT22;54391;50.000;7.360;2022-10-10T10:31:19;21.00;1.00
39401;DHT22;54391;50.000;7.360;2022-10-10T10:33:55;21.20;1.00
39401;DHT22;54391;50.000;7.360;2022-10-10T10:36:32;21.00;1.00
39401;DHT22;54391;50.000;7.360;2022-10-10T10:39:15;21.20;1.00
39401;DHT22;54391;50.000;7.360;2022-10-10T10:41:50;21.20;1.00
39401;DHT22;54391;50.000;7.360;2022-10-10T10:44:30;21.00;1.00
39401;DHT22;54391;50.000;7.360;2022-10-10T10:47:08;20.80;1.00
39401;DHT22;54391;50.000;7.360;2022-10-10T10:49:48;20.70;1.00
39401;DHT22;54391;50.000;7.360;2022-10-10T10:52:44;20.80;1.00
39401;DHT22;54391;50.000;7.360;2022-10-10T10:55:21;20.90;1.00
39401;DHT22;54391;50.000;7.360;2022-10-10T10:58:12;21.10;1.00
39401;DHT22;54391;50.000;7.360;2022-10-10T11:00:50;20.90;1.00
39401;DHT22;54391;50.000;7.360;2022-10-10T11:03:30;20.70;1.60
39401;DHT22;54391;50.000;7.360;2022-10-10T11:06:04;21.00;1.00
39401;DHT22;54391;50.000;7.360;2022-10-10T11:08:56;21.80;1.00
39401;DHT22;54391;50.000;7.360;2022-10-10T11:11:36;21.70;1.00
39401;DHT22;54391;50.000;7.360;2022-10-10T11:14:15;21.80;1.00
39401;DHT22;54391;50.000;7.360;2022-10-10T11:16:49;21.90;1.00
39401;DHT22;54391;50.000;7.360;2022-10-10T11:19:24;21.80;1.00
39401;DHT22;54391;50.000;7.360;2022-10-10T11:21:56;21.10;1.00
39401;DHT22;54391;50.000;7.360;2022-10-10T11:24:38;20.60;1.00
39401;DHT22;54391;50.000;7.360;2022-10-10T11:27:13;20.40;1.00
39401;DHT22;54391;50.000;7.360;2022-10-10T11:29:55;20.20;1.10
39401;DHT22;54391;50.000;7.360;2022-10-10T11:32:27;20.10;1.00
39401;DHT22;54391;50.000;7.360;2022-10-10T11:35:13;19.80;2.30
39401;DHT22;54391;50.000;7.360;2022-10-10T11:37:46;20.00;2.20
39401;DHT22;54391;50.000;7.360;2022-10-10T11:40:39;20.30;1.50
39401;DHT22;54391;50.000;7.360;2022-10-10T11:43:14;20.40;1.20
39401;DHT22;54391;50.000;7.360;2022-10-10T11:45:44;20.20;1.90
39401;DHT22;54391;50.000;7.360;2022-10-10T11:48:20;20.00;1.90
39401;DHT22;54391;50.000;7.360;2022-10-10T11:50:56;20.00;2.60
39401;DHT22;54391;50.000;7.360;2022-10-10T11:53:29;19.90;3.10
39401;DHT22;54391;50.000;7.360;2022-10-10T11:56:03;19.90;2.30
39401;DHT22;54391;50.000;7.360;2022-10-10T11:58:36;20.00;2.20
39401;DHT22;54391;50.000;7.360;2022-10-10T12:01:12;20.10;3.30
39401;DHT22;54391;50.000;7.360;2022-10-10T12:03:40;20.00;2.40
39401;DHT22;54391;50.000;7.360;2022-10-10T12:06:14;19.80;2.80
39401;DHT22;54391;50.000;7.360;2022-10-10T12:11:19;20.20;2.10
39401;DHT22;54391;50.000;7.360;2022-10-10T12:13:52;20.20;2.70
39401;DHT22;54391;50.000;7.360;2022-10-10T12:16:22;20.30;3.40
39401;DHT22;54391;50.000;7.360;2022-10-10T12:18:53;20.50;2.50
39401;DHT22;54391;50.000;7.360;2022-10-10T12:21:24;20.70;2.20
39401;DHT22;54391;50.000;7.360;2022-10-10T12:24:00;20.70;2.90
39401;DHT22;54391;50.000;7.360;2022-10-10T12:29:43;20.90;1.50
39401;DHT22;54391;50.000;7.360;2022-10-10T12:32:26;20.90;2.00
39401;DHT22;54391;50.000;7.360;2022-10-10T12:34:58;20.90;1.30
39401;DHT22;54391;50.000;7.360;2022-10-10T12:37:30;20.90;1.00
39401;DHT22;54391;50.000;7.360;2022-10-10T12:40:27;21.20;1.00
39401;DHT22;54391;50.000;7.360;2022-10-10T12:43:22;21.20;1.00
39401;DHT22;54391;50.000;7.360;2022-10-10T12:46:16;21.40;1.00
39401;DHT22;54391;50.000;7.360;2022-10-10T12:48:44;21.20;1.00
39401;DHT22;54391;50.000;7.360;2022-10-10T12:51:22;20.80;1.00
39401;DHT22;54391;50.000;7.360;2022-10-10T12:53:53;20.60;1.00
39401;DHT22;54391;50.000;7.360;2022-10-10T12:56:39;20.40;1.00
39401;DHT22;54391;50.000;7.360;2022-10-10T12:59:17;20.30;3.10
39401;DHT22;54391;50.000;7.360;2022-10-10T13:01:51;20.30;3.80
39401;DHT22;54391;50.000;7.360;2022-10-10T13:04:19;20.40;4.70
39401;DHT22;54391;50.000;7.360;2022-10-10T13:06:48;20.50;3.40
39401;DHT22;54391;50.000;7.360;2022-10-10T13:09:20;20.50;2.60
39401;DHT22;54391;50.000;7.360;2022-10-10T13:11:56;20.40;3.30
39401;DHT22;54391;50.000;7.360;2022-10-10T13:14:25;20.30;3.10
39401;DHT22;54391;50.000;7.360;2022-10-10T13:16:54;20.20;3.20
39401;DHT22;54391;50.000;7.360;2022-10-10T13:19:23;20.20;3.80
39401;DHT22;54391;50.000;7.360;2022-10-10T13:21:52;20.20;4.20
39401;DHT22;54391;50.000;7.360;2022-10-10T13:24:25;20.30;4.90
39401;DHT22;54391;50.000;7.360;2022-10-10T13:29:26;20.10;3.70
39401;DHT22;54391;50.000;7.360;2022-10-10T13:31:58;20.00;3.80
39401;DHT22;54391;50.000;7.360;2022-10-10T13:34:29;20.00;4.30
39401;DHT22;54391;50.000;7.360;2022-10-10T13:36:59;19.90;4.50
39401;DHT22;54391;50.000;7.360;2022-10-10T13:39:29;20.00;3.00
39401;DHT22;54391;50.000;7.360;2022-10-10T13:41:57;19.90;3.90
39401;DHT22;54391;50.000;7.360;2022-10-10T13:44:29;19.90;4.40
39401;DHT22;54391;50.000;7.360;2022-10-10T13:49:28;19.80;3.20
39401;DHT22;54391;50.000;7.360;2022-10-10T13:52:01;19.80;3.10
39401;DHT22;54391;50.000;7.360;2022-10-10T13:54:40;19.60;3.10
39401;DHT22;54391;50.000;7.360;2022-10-10T13:57:15;19.40;4.10
39401;DHT22;54391;50.000;7.360;2022-10-10T13:59:45;19.10;5.30
39401;DHT22;54391;50.000;7.360;2022-10-10T14:02:16;19.10;5.40
39401;DHT22;54391;50.000;7.360;2022-10-10T14:04:48;19.20;5.60
39401;DHT22;54391;50.000;7.360;2022-10-10T14:07:20;19.20;5.80
39401;DHT22;54391;50.000;7.360;2022-10-10T14:09:51;19.10;5.60
39401;DHT22;54391;50.000;7.360;2022-10-10T14:12:23;19.10;6.40
39401;DHT22;54391;50.000;7.360;2022-10-10T14:14:54;19.10;7.00
39401;DHT22;54391;50.000;7.360;2022-10-10T14:17:24;19.20;7.00
39401;DHT22;54391;50.000;7.360;2022-10-10T14:19:52;19.20;5.70
39401;DHT22;54391;50.000;7.360;2022-10-10T14:22:20;19.20;5.70
39401;DHT22;54391;50.000;7.360;2022-10-10T14:24:48;19.10;5.60
39401;DHT22;54391;50.000;7.360;2022-10-10T14:27:21;19.00;5.90
39401;DHT22;54391;50.000;7.360;2022-10-10T14:29:49;19.10;5.60
39401;DHT22;54391;50.000;7.360;2022-10-10T14:32:17;19.10;6.70
39401;DHT22;54391;50.000;7.360;2022-10-10T14:34:46;19.30;6.40
39401;DHT22;54391;50.000;7.360;2022-10-10T14:37:16;19.40;6.50
39401;DHT22;54391;50.000;7.360;2022-10-10T14:39:45;19.50;3.90
39401;DHT22;54391;50.000;7.360;2022-10-10T14:42:14;19.40;3.00
39401;DHT22;54391;50.000;7.360;2022-10-10T14:47:14;19.20;3.80
39401;DHT22;54391;50.000;7.360;2022-10-10T14:49:42;19.10;4.90
39401;DHT22;54391;50.000;7.360;2022-10-10T14:52:11;19.00;4.80
39401;DHT22;54391;50.000;7.360;2022-10-10T14:54:39;18.80;6.10
39401;DHT22;54391;50.000;7.360;2022-10-10T14:57:06;18.70;6.10
39401;DHT22;54391;50.000;7.360;2022-10-10T14:59:34;18.60;6.50
39401;DHT22;54391;50.000;7.360;2022-10-10T15:02:01;18.70;7.40
39401;DHT22;54391;50.000;7.360;2022-10-10T15:04:31;18.70;8.00
39401;DHT22;54391;50.000;7.360;2022-10-10T15:06:58;18.60;8.60
39401;DHT22;54391;50.000;7.360;2022-10-10T15:09:27;18.50;8.30
39401;DHT22;54391;50.000;7.360;2022-10-10T15:11:54;18.40;8.70
39401;DHT22;54391;50.000;7.360;2022-10-10T15:14:21;18.40;9.30
39401;DHT22;54391;50.000;7.360;2022-10-10T15:16:49;18.30;10.40
39401;DHT22;54391;50.000;7.360;2022-10-10T15:19:16;18.20;10.70
39401;DHT22;54391;50.000;7.360;2022-10-10T15:21:43;18.10;11.30
39401;DHT22;54391;50.000;7.360;2022-10-10T15:24:11;18.00;12.20
39401;DHT22;54391;50.000;7.360;2022-10-10T15:26:39;18.00;12.10
39401;DHT22;54391;50.000;7.360;2022-10-10T15:34:02;17.70;12.80
39401;DHT22;54391;50.000;7.360;2022-10-10T15:36:30;17.60;13.00
39401;DHT22;54391;50.000;7.360;2022-10-10T15:38:57;17.50;14.50
39401;DHT22;54391;50.000;7.360;2022-10-10T15:41:24;17.50;15.20
39401;DHT22;54391;50.000;7.360;2022-10-10T15:46:22;17.30;16.60
39401;DHT22;54391;50.000;7.360;2022-10-10T15:51:17;16.90;19.50
39401;DHT22;54391;50.000;7.360;2022-10-10T15:53:45;16.80;20.00
39401;DHT22;54391;50.000;7.360;2022-10-10T16:01:15;16.70;18.50
39401;DHT22;54391;50.000;7.360;2022-10-10T16:03:43;16.60;19.60
39401;DHT22;54391;50.000;7.360;2022-10-10T16:11:10;16.50;26.60
39401;DHT22;54391;50.000;7.360;2022-10-10T16:13:39;16.30;28.90
39401;DHT22;54391;50.000;7.360;2022-10-10T16:16:09;16.20;29.40
39401;DHT22;54391;50.000;7.360;2022-10-10T16:18:39;16.10;37.60
39401;DHT22;54391;50.000;7.360;2022-10-10T16:21:09;16.00;37.70
39401;DHT22;54391;50.000;7.360;2022-10-10T16:23:37;15.90;43.90
39401;DHT22;54391;50.000;7.360;2022-10-10T16:26:07;15.80;44.80
39401;DHT22;54391;50.000;7.360;2022-10-10T16:28:34;15.80;45.40
39401;DHT22;54391;50.000;7.360;2022-10-10T16:31:02;15.70;46.20
39401;DHT22;54391;50.000;7.360;2022-10-10T16:33:30;15.70;49.50
39401;DHT22;54391;50.000;7.360;2022-10-10T16:36:00;15.60;49.70
39401;DHT22;54391;50.000;7.360;2022-10-10T16:38:28;15.60;50.70
39401;DHT22;54391;50.000;7.360;2022-10-10T16:40:55;15.50;53.40
39401;DHT22;54391;50.000;7.360;2022-10-10T16:43:22;15.50;56.70
39401;DHT22;54391;50.000;7.360;2022-10-10T16:45:50;15.40;57.80
39401;DHT22;54391;50.000;7.360;2022-10-10T16:48:17;15.30;59.40
39401;DHT22;54391;50.000;7.360;2022-10-10T16:50:44;15.20;61.90
39401;DHT22;54391;50.000;7.360;2022-10-10T16:55:41;15.20;64.60
39401;DHT22;54391;50.000;7.360;2022-10-10T16:58:09;15.00;67.90
39401;DHT22;54391;50.000;7.360;2022-10-10T17:00:36;14.90;72.60
39401;DHT22;54391;50.000;7.360;2022-10-10T17:05:34;14.60;79.40
39401;DHT22;54391;50.000;7.360;2022-10-10T17:12:58;14.50;81.70
39401;DHT22;54391;50.000;7.360;2022-10-10T17:17:56;14.40;80.30
39401;DHT22;54391;50.000;7.360;2022-10-10T17:20:23;14.40;83.20
39401;DHT22;54391;50.000;7.360;2022-10-10T17:25:18;14.30;82.40
39401;DHT22;54391;50.000;7.360;2022-10-10T17:27:47;14.30;83.90
39401;DHT22;54391;50.000;7.360;2022-10-10T17:32:42;14.20;85.70
39401;DHT22;54391;50.000;7.360;2022-10-10T17:35:10;14.10;86.70